Terminal Aerodrome Forecast
Issued by NWS Atlanta, GA

Home | Current Version | Previous Version | Text Only | Print | Product List | Glossary On
Versions: 1 2 3 4 5 6 7 8 9 10 11 12 13 14 15 16 17 18 19 20 21 22 23 24 25 26 27 28 29 30 31 32 33 34 35 36 37 38 39
000
FTUS42 KFFC 180520
TAFAHN
TAF
KAHN 180520Z 1806/1906 07004KT 6SM -RA BKN004 OVC014
     FM180900 VRB03KT 2SM -DZ BR OVC003
     FM181400 07005KT P6SM BKN008
     FM181800 11006KT P6SM BKN025 PROB30 1821/1824 4SM TSRA SCT025CB
      BKN035
     FM190500 12004KT P6SM -RA BKN015=

USA.gov is the U.S. government's official web portal to all federal, state and local government web resources and services.